sensor_id;sensor_type;location;lat;lon;timestamp;P1;durP1;ratioP1;P2;durP2;ratioP2
29466;SDS011;60968;37.490;-122.288;2023-03-01T00:02:43;10.60;;;1.60;;
29466;SDS011;60968;37.490;-122.288;2023-03-01T00:05:47;13.87;;;2.00;;
29466;SDS011;60968;37.490;-122.288;2023-03-01T00:08:48;12.23;;;2.00;;
29466;SDS011;60968;37.490;-122.288;2023-03-01T00:11:49;18.27;;;2.47;;
29466;SDS011;60968;37.490;-122.288;2023-03-01T00:14:53;13.37;;;1.87;;
29466;SDS011;60968;37.490;-122.288;2023-03-01T00:17:53;13.87;;;2.27;;
29466;SDS011;60968;37.490;-122.288;2023-03-01T00:20:55;12.23;;;2.20;;
29466;SDS011;60968;37.490;-122.288;2023-03-01T00:23:56;11.40;;;1.70;;
29466;SDS011;60968;37.490;-122.288;2023-03-01T00:26:58;15.80;;;2.17;;
29466;SDS011;60968;37.490;-122.288;2023-03-01T00:30:00;16.67;;;2.13;;
29466;SDS011;60968;37.490;-122.288;2023-03-01T00:33:01;14.97;;;1.90;;
29466;SDS011;60968;37.490;-122.288;2023-03-01T00:36:02;9.13;;;1.57;;
29466;SDS011;60968;37.490;-122.288;2023-03-01T00:39:04;11.67;;;1.67;;
29466;SDS011;60968;37.490;-122.288;2023-03-01T00:42:07;11.43;;;1.60;;
29466;SDS011;60968;37.490;-122.288;2023-03-01T00:45:08;7.77;;;1.37;;
29466;SDS011;60968;37.490;-122.288;2023-03-01T00:48:13;12.13;;;1.80;;
29466;SDS011;60968;37.490;-122.288;2023-03-01T00:51:20;11.20;;;1.50;;
29466;SDS011;60968;37.490;-122.288;2023-03-01T00:54:29;5.63;;;1.03;;
29466;SDS011;60968;37.490;-122.288;2023-03-01T00:57:36;10.10;;;1.50;;
29466;SDS011;60968;37.490;-122.288;2023-03-01T01:00:43;6.03;;;1.30;;
29466;SDS011;60968;37.490;-122.288;2023-03-01T01:03:50;6.60;;;0.87;;
29466;SDS011;60968;37.490;-122.288;2023-03-01T01:06:54;3.90;;;0.77;;
29466;SDS011;60968;37.490;-122.288;2023-03-01T01:09:55;6.37;;;0.93;;
29466;SDS011;60968;37.490;-122.288;2023-03-01T01:12:56;5.57;;;0.70;;
29466;SDS011;60968;37.490;-122.288;2023-03-01T01:16:00;3.63;;;0.50;;
29466;SDS011;60968;37.490;-122.288;2023-03-01T01:19:01;1.37;;;0.20;;
29466;SDS011;60968;37.490;-122.288;2023-03-01T01:22:03;4.77;;;0.50;;
29466;SDS011;60968;37.490;-122.288;2023-03-01T01:25:04;5.37;;;0.70;;
29466;SDS011;60968;37.490;-122.288;2023-03-01T01:28:06;7.03;;;0.57;;
29466;SDS011;60968;37.490;-122.288;2023-03-01T01:31:12;7.57;;;1.10;;
29466;SDS011;60968;37.490;-122.288;2023-03-01T01:34:15;4.50;;;0.70;;
29466;SDS011;60968;37.490;-122.288;2023-03-01T01:37:17;9.47;;;1.20;;
29466;SDS011;60968;37.490;-122.288;2023-03-01T01:40:20;10.83;;;1.20;;
29466;SDS011;60968;37.490;-122.288;2023-03-01T01:43:29;5.27;;;0.93;;
29466;SDS011;60968;37.490;-122.288;2023-03-01T01:46:36;5.80;;;0.70;;
29466;SDS011;60968;37.490;-122.288;2023-03-01T01:49:44;6.03;;;0.73;;
29466;SDS011;60968;37.490;-122.288;2023-03-01T01:52:49;3.23;;;0.57;;
29466;SDS011;60968;37.490;-122.288;2023-03-01T01:55:53;10.50;;;0.80;;
29466;SDS011;60968;37.490;-122.288;2023-03-01T01:58:56;4.80;;;0.80;;
29466;SDS011;60968;37.490;-122.288;2023-03-01T02:02:01;10.57;;;1.20;;
29466;SDS011;60968;37.490;-122.288;2023-03-01T02:05:15;14.23;;;1.17;;
29466;SDS011;60968;37.490;-122.288;2023-03-01T02:08:30;10.07;;;1.30;;
29466;SDS011;60968;37.490;-122.288;2023-03-01T02:11:35;11.33;;;1.33;;
29466;SDS011;60968;37.490;-122.288;2023-03-01T02:14:37;15.20;;;1.20;;
29466;SDS011;60968;37.490;-122.288;2023-03-01T02:17:38;12.33;;;1.80;;
29466;SDS011;60968;37.490;-122.288;2023-03-01T02:20:51;5.33;;;0.90;;
29466;SDS011;60968;37.490;-122.288;2023-03-01T02:24:24;2.93;;;0.73;;
29466;SDS011;60968;37.490;-122.288;2023-03-01T02:27:56;4.37;;;0.97;;
29466;SDS011;60968;37.490;-122.288;2023-03-01T02:31:18;7.93;;;1.27;;
29466;SDS011;60968;37.490;-122.288;2023-03-01T02:34:21;4.20;;;0.53;;
29466;SDS011;60968;37.490;-122.288;2023-03-01T02:37:24;1.80;;;0.77;;
29466;SDS011;60968;37.490;-122.288;2023-03-01T02:40:28;1.50;;;0.30;;
29466;SDS011;60968;37.490;-122.288;2023-03-01T02:43:31;2.27;;;0.33;;
29466;SDS011;60968;37.490;-122.288;2023-03-01T02:46:33;4.20;;;0.63;;
29466;SDS011;60968;37.490;-122.288;2023-03-01T02:49:35;2.63;;;0.40;;
29466;SDS011;60968;37.490;-122.288;2023-03-01T02:55:53;0.50;;;0.30;;
29466;SDS011;60968;37.490;-122.288;2023-03-01T02:58:54;1.97;;;0.30;;
29466;SDS011;60968;37.490;-122.288;2023-03-01T03:01:55;2.73;;;0.40;;
29466;SDS011;60968;37.490;-122.288;2023-03-01T03:04:56;2.37;;;0.40;;
29466;SDS011;60968;37.490;-122.288;2023-03-01T03:07:58;2.97;;;0.30;;
29466;SDS011;60968;37.490;-122.288;2023-03-01T03:11:03;2.07;;;0.40;;
29466;SDS011;60968;37.490;-122.288;2023-03-01T03:14:06;1.67;;;0.43;;
29466;SDS011;60968;37.490;-122.288;2023-03-01T03:17:08;1.93;;;0.60;;
29466;SDS011;60968;37.490;-122.288;2023-03-01T03:20:10;7.83;;;0.63;;
29466;SDS011;60968;37.490;-122.288;2023-03-01T03:23:13;1.10;;;0.50;;
29466;SDS011;60968;37.490;-122.288;2023-03-01T03:26:14;4.17;;;0.70;;
29466;SDS011;60968;37.490;-122.288;2023-03-01T03:29:14;4.90;;;0.50;;
29466;SDS011;60968;37.490;-122.288;2023-03-01T03:32:15;2.53;;;0.70;;
29466;SDS011;60968;37.490;-122.288;2023-03-01T03:35:16;3.87;;;0.70;;
29466;SDS011;60968;37.490;-122.288;2023-03-01T03:38:18;5.13;;;1.07;;
29466;SDS011;60968;37.490;-122.288;2023-03-01T03:41:20;4.43;;;0.80;;
29466;SDS011;60968;37.490;-122.288;2023-03-01T03:44:21;5.70;;;0.60;;
29466;SDS011;60968;37.490;-122.288;2023-03-01T03:47:22;5.27;;;0.77;;
29466;SDS011;60968;37.490;-122.288;2023-03-01T03:50:24;6.17;;;0.70;;
29466;SDS011;60968;37.490;-122.288;2023-03-01T03:53:25;3.23;;;0.80;;
29466;SDS011;60968;37.490;-122.288;2023-03-01T03:56:27;2.70;;;0.60;;
29466;SDS011;60968;37.490;-122.288;2023-03-01T03:59:28;4.70;;;0.60;;
29466;SDS011;60968;37.490;-122.288;2023-03-01T04:02:29;3.47;;;0.80;;
29466;SDS011;60968;37.490;-122.288;2023-03-01T04:05:30;6.80;;;0.77;;
29466;SDS011;60968;37.490;-122.288;2023-03-01T04:08:31;5.00;;;0.73;;
29466;SDS011;60968;37.490;-122.288;2023-03-01T04:11:34;13.80;;;1.10;;
29466;SDS011;60968;37.490;-122.288;2023-03-01T04:14:34;5.77;;;1.13;;
29466;SDS011;60968;37.490;-122.288;2023-03-01T04:17:36;4.80;;;0.63;;
29466;SDS011;60968;37.490;-122.288;2023-03-01T04:20:37;2.13;;;0.40;;
29466;SDS011;60968;37.490;-122.288;2023-03-01T04:23:38;5.83;;;0.67;;
29466;SDS011;60968;37.490;-122.288;2023-03-01T04:26:39;3.60;;;0.50;;
29466;SDS011;60968;37.490;-122.288;2023-03-01T04:29:40;5.90;;;0.67;;
29466;SDS011;60968;37.490;-122.288;2023-03-01T04:32:41;3.20;;;0.63;;
29466;SDS011;60968;37.490;-122.288;2023-03-01T04:35:42;3.63;;;0.70;;
29466;SDS011;60968;37.490;-122.288;2023-03-01T04:38:43;2.80;;;0.40;;
29466;SDS011;60968;37.490;-122.288;2023-03-01T04:41:44;4.80;;;0.50;;
29466;SDS011;60968;37.490;-122.288;2023-03-01T04:44:45;8.23;;;1.20;;
29466;SDS011;60968;37.490;-122.288;2023-03-01T04:47:46;7.17;;;0.77;;
29466;SDS011;60968;37.490;-122.288;2023-03-01T04:50:47;6.80;;;1.80;;
29466;SDS011;60968;37.490;-122.288;2023-03-01T04:53:48;5.03;;;0.80;;
29466;SDS011;60968;37.490;-122.288;2023-03-01T04:56:49;8.27;;;1.03;;
29466;SDS011;60968;37.490;-122.288;2023-03-01T04:59:50;6.33;;;1.37;;
29466;SDS011;60968;37.490;-122.288;2023-03-01T05:02:52;5.50;;;1.07;;
29466;SDS011;60968;37.490;-122.288;2023-03-01T05:05:58;9.50;;;1.20;;
29466;SDS011;60968;37.490;-122.288;2023-03-01T05:08:59;7.67;;;0.97;;
29466;SDS011;60968;37.490;-122.288;2023-03-01T05:12:02;4.87;;;1.27;;
29466;SDS011;60968;37.490;-122.288;2023-03-01T05:15:04;6.97;;;1.10;;
29466;SDS011;60968;37.490;-122.288;2023-03-01T05:18:08;3.53;;;0.60;;
29466;SDS011;60968;37.490;-122.288;2023-03-01T05:21:14;7.47;;;0.80;;
29466;SDS011;60968;37.490;-122.288;2023-03-01T05:24:18;4.13;;;0.67;;
29466;SDS011;60968;37.490;-122.288;2023-03-01T05:27:20;8.70;;;0.90;;
29466;SDS011;60968;37.490;-122.288;2023-03-01T05:30:21;3.63;;;0.60;;
29466;SDS011;60968;37.490;-122.288;2023-03-01T05:33:22;3.63;;;0.73;;
29466;SDS011;60968;37.490;-122.288;2023-03-01T05:36:24;3.67;;;0.80;;
29466;SDS011;60968;37.490;-122.288;2023-03-01T05:39:25;5.63;;;0.87;;
29466;SDS011;60968;37.490;-122.288;2023-03-01T05:42:30;5.77;;;0.90;;
29466;SDS011;60968;37.490;-122.288;2023-03-01T05:45:31;5.40;;;0.83;;
29466;SDS011;60968;37.490;-122.288;2023-03-01T05:48:33;5.10;;;0.80;;
29466;SDS011;60968;37.490;-122.288;2023-03-01T05:51:33;6.23;;;0.63;;
29466;SDS011;60968;37.490;-122.288;2023-03-01T05:54:34;3.97;;;0.87;;
29466;SDS011;60968;37.490;-122.288;2023-03-01T05:57:35;4.50;;;0.60;;
29466;SDS011;60968;37.490;-122.288;2023-03-01T06:00:36;6.90;;;1.20;;
29466;SDS011;60968;37.490;-122.288;2023-03-01T06:03:37;9.50;;;0.77;;
29466;SDS011;60968;37.490;-122.288;2023-03-01T06:06:38;5.50;;;1.10;;
29466;SDS011;60968;37.490;-122.288;2023-03-01T06:09:39;12.27;;;1.00;;
29466;SDS011;60968;37.490;-122.288;2023-03-01T06:12:40;2.90;;;0.60;;
29466;SDS011;60968;37.490;-122.288;2023-03-01T06:15:42;3.17;;;0.90;;
29466;SDS011;60968;37.490;-122.288;2023-03-01T06:18:43;5.83;;;0.90;;
29466;SDS011;60968;37.490;-122.288;2023-03-01T06:21:44;5.70;;;1.10;;
29466;SDS011;60968;37.490;-122.288;2023-03-01T06:24:45;6.67;;;0.87;;
29466;SDS011;60968;37.490;-122.288;2023-03-01T06:27:45;7.20;;;0.80;;
29466;SDS011;60968;37.490;-122.288;2023-03-01T06:30:47;3.87;;;0.93;;
29466;SDS011;60968;37.490;-122.288;2023-03-01T06:33:48;8.43;;;0.90;;
29466;SDS011;60968;37.490;-122.288;2023-03-01T06:36:50;6.13;;;1.10;;
29466;SDS011;60968;37.490;-122.288;2023-03-01T06:39:51;7.13;;;1.10;;
29466;SDS011;60968;37.490;-122.288;2023-03-01T06:42:53;8.80;;;1.10;;
29466;SDS011;60968;37.490;-122.288;2023-03-01T06:45:55;9.63;;;0.90;;
29466;SDS011;60968;37.490;-122.288;2023-03-01T06:48:56;9.93;;;1.33;;
29466;SDS011;60968;37.490;-122.288;2023-03-01T06:51:57;6.90;;;1.07;;
29466;SDS011;60968;37.490;-122.288;2023-03-01T06:54:57;9.50;;;1.47;;
29466;SDS011;60968;37.490;-122.288;2023-03-01T06:57:59;6.53;;;1.27;;
29466;SDS011;60968;37.490;-122.288;2023-03-01T07:01:05;12.53;;;1.53;;
29466;SDS011;60968;37.490;-122.288;2023-03-01T07:04:10;5.90;;;0.63;;
29466;SDS011;60968;37.490;-122.288;2023-03-01T07:07:12;7.83;;;0.90;;
29466;SDS011;60968;37.490;-122.288;2023-03-01T07:10:13;11.43;;;1.00;;
29466;SDS011;60968;37.490;-122.288;2023-03-01T07:13:15;9.17;;;1.50;;
29466;SDS011;60968;37.490;-122.288;2023-03-01T07:16:16;6.27;;;1.27;;
29466;SDS011;60968;37.490;-122.288;2023-03-01T07:19:17;10.93;;;1.63;;
29466;SDS011;60968;37.490;-122.288;2023-03-01T07:22:18;11.20;;;2.03;;
29466;SDS011;60968;37.490;-122.288;2023-03-01T07:25:20;8.27;;;1.57;;
29466;SDS011;60968;37.490;-122.288;2023-03-01T07:28:24;6.37;;;1.13;;
29466;SDS011;60968;37.490;-122.288;2023-03-01T07:31:24;5.93;;;1.23;;
29466;SDS011;60968;37.490;-122.288;2023-03-01T07:34:25;3.50;;;1.00;;
29466;SDS011;60968;37.490;-122.288;2023-03-01T07:37:26;5.37;;;0.97;;
29466;SDS011;60968;37.490;-122.288;2023-03-01T07:40:28;8.83;;;1.50;;
29466;SDS011;60968;37.490;-122.288;2023-03-01T07:43:29;3.23;;;0.80;;
29466;SDS011;60968;37.490;-122.288;2023-03-01T07:46:30;5.67;;;1.00;;
29466;SDS011;60968;37.490;-122.288;2023-03-01T07:49:31;7.93;;;1.40;;
29466;SDS011;60968;37.490;-122.288;2023-03-01T07:52:33;10.33;;;1.43;;
29466;SDS011;60968;37.490;-122.288;2023-03-01T07:55:34;7.30;;;1.40;;
29466;SDS011;60968;37.490;-122.288;2023-03-01T07:58:35;4.33;;;1.07;;
29466;SDS011;60968;37.490;-122.288;2023-03-01T08:01:42;2.47;;;0.63;;
29466;SDS011;60968;37.490;-122.288;2023-03-01T08:04:43;4.07;;;0.70;;
29466;SDS011;60968;37.490;-122.288;2023-03-01T08:07:44;6.03;;;0.90;;
29466;SDS011;60968;37.490;-122.288;2023-03-01T08:10:45;5.77;;;0.97;;
29466;SDS011;60968;37.490;-122.288;2023-03-01T08:13:47;6.67;;;0.73;;
29466;SDS011;60968;37.490;-122.288;2023-03-01T08:16:49;3.83;;;0.60;;
29466;SDS011;60968;37.490;-122.288;2023-03-01T08:19:50;5.00;;;0.67;;
29466;SDS011;60968;37.490;-122.288;2023-03-01T08:22:51;8.80;;;1.13;;
29466;SDS011;60968;37.490;-122.288;2023-03-01T08:25:51;4.17;;;1.00;;
29466;SDS011;60968;37.490;-122.288;2023-03-01T08:28:52;5.83;;;1.20;;
29466;SDS011;60968;37.490;-122.288;2023-03-01T08:31:53;7.37;;;0.90;;
29466;SDS011;60968;37.490;-122.288;2023-03-01T08:34:54;5.30;;;1.20;;
29466;SDS011;60968;37.490;-122.288;2023-03-01T08:37:55;7.10;;;0.97;;
29466;SDS011;60968;37.490;-122.288;2023-03-01T08:40:58;8.40;;;1.23;;
29466;SDS011;60968;37.490;-122.288;2023-03-01T08:44:00;4.77;;;0.80;;
29466;SDS011;60968;37.490;-122.288;2023-03-01T08:47:04;5.93;;;1.83;;
29466;SDS011;60968;37.490;-122.288;2023-03-01T08:50:05;13.60;;;1.43;;
29466;SDS011;60968;37.490;-122.288;2023-03-01T08:53:06;5.53;;;0.97;;
29466;SDS011;60968;37.490;-122.288;2023-03-01T08:56:08;13.10;;;1.60;;
29466;SDS011;60968;37.490;-122.288;2023-03-01T08:59:13;9.87;;;1.27;;
29466;SDS011;60968;37.490;-122.288;2023-03-01T09:02:16;10.93;;;1.47;;
29466;SDS011;60968;37.490;-122.288;2023-03-01T09:05:18;8.90;;;1.10;;
29466;SDS011;60968;37.490;-122.288;2023-03-01T09:08:19;13.33;;;1.50;;
29466;SDS011;60968;37.490;-122.288;2023-03-01T09:11:20;9.30;;;1.47;;
29466;SDS011;60968;37.490;-122.288;2023-03-01T09:14:23;8.63;;;1.37;;
29466;SDS011;60968;37.490;-122.288;2023-03-01T09:17:23;7.37;;;1.20;;
29466;SDS011;60968;37.490;-122.288;2023-03-01T09:20:24;6.97;;;1.47;;
29466;SDS011;60968;37.490;-122.288;2023-03-01T09:23:25;11.13;;;1.43;;
29466;SDS011;60968;37.490;-122.288;2023-03-01T09:26:26;13.73;;;1.73;;
29466;SDS011;60968;37.490;-122.288;2023-03-01T09:29:27;9.50;;;1.97;;
29466;SDS011;60968;37.490;-122.288;2023-03-01T09:32:29;6.93;;;1.20;;
29466;SDS011;60968;37.490;-122.288;2023-03-01T09:35:31;11.13;;;1.17;;
29466;SDS011;60968;37.490;-122.288;2023-03-01T09:38:32;8.73;;;1.40;;
29466;SDS011;60968;37.490;-122.288;2023-03-01T09:44:43;11.77;;;1.67;;
29466;SDS011;60968;37.490;-122.288;2023-03-01T09:47:51;6.90;;;1.20;;
29466;SDS011;60968;37.490;-122.288;2023-03-01T09:50:54;11.33;;;1.70;;
29466;SDS011;60968;37.490;-122.288;2023-03-01T09:53:56;9.67;;;1.60;;
29466;SDS011;60968;37.490;-122.288;2023-03-01T09:57:17;11.93;;;1.43;;
29466;SDS011;60968;37.490;-122.288;2023-03-01T10:10:53;9.87;;;1.23;;
29466;SDS011;60968;37.490;-122.288;2023-03-01T10:17:08;9.53;;;1.20;;
29466;SDS011;60968;37.490;-122.288;2023-03-01T10:20:15;8.13;;;1.60;;
29466;SDS011;60968;37.490;-122.288;2023-03-01T10:23:24;12.60;;;1.37;;
29466;SDS011;60968;37.490;-122.288;2023-03-01T10:33:29;6.97;;;1.23;;
29466;SDS011;60968;37.490;-122.288;2023-03-01T10:36:33;10.87;;;1.27;;
29466;SDS011;60968;37.490;-122.288;2023-03-01T10:39:34;14.97;;;1.63;;
29466;SDS011;60968;37.490;-122.288;2023-03-01T10:42:39;11.23;;;1.53;;
29466;SDS011;60968;37.490;-122.288;2023-03-01T10:45:50;6.30;;;1.37;;
29466;SDS011;60968;37.490;-122.288;2023-03-01T10:52:35;10.53;;;1.43;;
29466;SDS011;60968;37.490;-122.288;2023-03-01T10:55:40;11.13;;;1.33;;
29466;SDS011;60968;37.490;-122.288;2023-03-01T11:02:07;7.83;;;1.50;;
29466;SDS011;60968;37.490;-122.288;2023-03-01T11:05:21;6.97;;;1.27;;
29466;SDS011;60968;37.490;-122.288;2023-03-01T11:08:34;8.97;;;1.50;;
29466;SDS011;60968;37.490;-122.288;2023-03-01T11:11:37;11.57;;;1.20;;
29466;SDS011;60968;37.490;-122.288;2023-03-01T11:14:38;9.03;;;1.00;;
29466;SDS011;60968;37.490;-122.288;2023-03-01T11:17:51;4.90;;;0.70;;
29466;SDS011;60968;37.490;-122.288;2023-03-01T11:20:53;5.63;;;0.90;;
29466;SDS011;60968;37.490;-122.288;2023-03-01T11:23:57;8.63;;;1.20;;
29466;SDS011;60968;37.490;-122.288;2023-03-01T11:27:03;7.43;;;1.23;;
29466;SDS011;60968;37.490;-122.288;2023-03-01T11:37:21;3.43;;;1.10;;
29466;SDS011;60968;37.490;-122.288;2023-03-01T11:50:18;10.97;;;1.10;;
29466;SDS011;60968;37.490;-122.288;2023-03-01T11:56:54;6.10;;;1.07;;
29466;SDS011;60968;37.490;-122.288;2023-03-01T12:03:23;7.80;;;1.20;;
29466;SDS011;60968;37.490;-122.288;2023-03-01T12:40:45;9.47;;;1.33;;
29466;SDS011;60968;37.490;-122.288;2023-03-01T12:47:54;5.77;;;1.17;;
29466;SDS011;60968;37.490;-122.288;2023-03-01T12:51:22;10.97;;;2.13;;
29466;SDS011;60968;37.490;-122.288;2023-03-01T12:54:27;11.00;;;1.53;;
29466;SDS011;60968;37.490;-122.288;2023-03-01T12:57:39;8.73;;;1.37;;
29466;SDS011;60968;37.490;-122.288;2023-03-01T13:00:47;9.43;;;1.53;;
29466;SDS011;60968;37.490;-122.288;2023-03-01T13:04:27;9.53;;;1.33;;
29466;SDS011;60968;37.490;-122.288;2023-03-01T13:07:54;12.10;;;1.30;;
29466;SDS011;60968;37.490;-122.288;2023-03-01T13:11:04;12.43;;;1.20;;
29466;SDS011;60968;37.490;-122.288;2023-03-01T13:17:31;8.83;;;2.07;;
29466;SDS011;60968;37.490;-122.288;2023-03-01T13:23:47;9.23;;;1.67;;
29466;SDS011;60968;37.490;-122.288;2023-03-01T13:30:38;10.83;;;1.73;;
29466;SDS011;60968;37.490;-122.288;2023-03-01T13:33:39;7.67;;;1.47;;
29466;SDS011;60968;37.490;-122.288;2023-03-01T13:37:10;9.53;;;1.10;;
29466;SDS011;60968;37.490;-122.288;2023-03-01T13:43:38;8.73;;;1.90;;
29466;SDS011;60968;37.490;-122.288;2023-03-01T13:46:42;13.00;;;1.47;;
29466;SDS011;60968;37.490;-122.288;2023-03-01T13:49:48;9.03;;;1.30;;
29466;SDS011;60968;37.490;-122.288;2023-03-01T13:53:04;6.33;;;0.83;;
29466;SDS011;60968;37.490;-122.288;2023-03-01T13:56:16;12.37;;;1.33;;
29466;SDS011;60968;37.490;-122.288;2023-03-01T13:59:20;11.90;;;1.30;;
29466;SDS011;60968;37.490;-122.288;2023-03-01T14:02:23;6.03;;;0.83;;
29466;SDS011;60968;37.490;-122.288;2023-03-01T14:05:23;9.63;;;1.13;;
29466;SDS011;60968;37.490;-122.288;2023-03-01T14:08:25;12.83;;;1.17;;
29466;SDS011;60968;37.490;-122.288;2023-03-01T14:14:39;3.60;;;1.10;;
29466;SDS011;60968;37.490;-122.288;2023-03-01T14:21:12;12.97;;;0.83;;
29466;SDS011;60968;37.490;-122.288;2023-03-01T14:24:20;13.47;;;1.57;;
29466;SDS011;60968;37.490;-122.288;2023-03-01T14:27:23;4.87;;;1.27;;
29466;SDS011;60968;37.490;-122.288;2023-03-01T14:33:40;5.73;;;1.17;;
29466;SDS011;60968;37.490;-122.288;2023-03-01T14:36:41;4.70;;;1.17;;
29466;SDS011;60968;37.490;-122.288;2023-03-01T14:39:41;5.17;;;1.10;;
29466;SDS011;60968;37.490;-122.288;2023-03-01T14:42:42;6.90;;;0.93;;
29466;SDS011;60968;37.490;-122.288;2023-03-01T14:45:46;5.27;;;1.33;;
29466;SDS011;60968;37.490;-122.288;2023-03-01T14:48:53;10.07;;;1.43;;
29466;SDS011;60968;37.490;-122.288;2023-03-01T14:52:05;4.23;;;1.10;;
29466;SDS011;60968;37.490;-122.288;2023-03-01T14:55:18;7.73;;;1.50;;
29466;SDS011;60968;37.490;-122.288;2023-03-01T14:58:22;7.67;;;1.33;;
29466;SDS011;60968;37.490;-122.288;2023-03-01T15:01:26;10.67;;;1.40;;
29466;SDS011;60968;37.490;-122.288;2023-03-01T15:04:28;10.77;;;2.23;;
29466;SDS011;60968;37.490;-122.288;2023-03-01T15:07:31;6.20;;;1.40;;
29466;SDS011;60968;37.490;-122.288;2023-03-01T15:10:36;5.87;;;1.00;;
29466;SDS011;60968;37.490;-122.288;2023-03-01T15:13:37;5.83;;;1.20;;
29466;SDS011;60968;37.490;-122.288;2023-03-01T15:16:38;6.53;;;1.40;;
29466;SDS011;60968;37.490;-122.288;2023-03-01T15:19:39;8.10;;;1.30;;
29466;SDS011;60968;37.490;-122.288;2023-03-01T15:22:42;7.50;;;1.43;;
29466;SDS011;60968;37.490;-122.288;2023-03-01T15:25:44;12.40;;;1.30;;
29466;SDS011;60968;37.490;-122.288;2023-03-01T15:28:48;6.43;;;1.10;;
29466;SDS011;60968;37.490;-122.288;2023-03-01T15:31:56;6.67;;;1.53;;
29466;SDS011;60968;37.490;-122.288;2023-03-01T15:35:33;8.20;;;1.87;;
29466;SDS011;60968;37.490;-122.288;2023-03-01T15:38:51;6.63;;;1.33;;
29466;SDS011;60968;37.490;-122.288;2023-03-01T15:41:54;6.30;;;1.33;;
29466;SDS011;60968;37.490;-122.288;2023-03-01T15:45:11;6.40;;;1.40;;
29466;SDS011;60968;37.490;-122.288;2023-03-01T15:48:17;17.73;;;1.40;;
29466;SDS011;60968;37.490;-122.288;2023-03-01T15:51:22;6.27;;;1.07;;
29466;SDS011;60968;37.490;-122.288;2023-03-01T15:54:33;5.90;;;0.90;;
29466;SDS011;60968;37.490;-122.288;2023-03-01T15:57:34;8.40;;;1.67;;
29466;SDS011;60968;37.490;-122.288;2023-03-01T16:00:35;8.73;;;1.40;;
29466;SDS011;60968;37.490;-122.288;2023-03-01T16:03:36;8.90;;;1.20;;
29466;SDS011;60968;37.490;-122.288;2023-03-01T16:06:37;7.40;;;1.50;;
29466;SDS011;60968;37.490;-122.288;2023-03-01T16:09:38;7.37;;;1.40;;
29466;SDS011;60968;37.490;-122.288;2023-03-01T16:12:39;8.50;;;1.50;;
29466;SDS011;60968;37.490;-122.288;2023-03-01T16:15:40;4.83;;;1.30;;
29466;SDS011;60968;37.490;-122.288;2023-03-01T16:18:46;10.50;;;1.50;;
29466;SDS011;60968;37.490;-122.288;2023-03-01T16:21:47;6.13;;;1.07;;
29466;SDS011;60968;37.490;-122.288;2023-03-01T16:24:49;6.00;;;1.47;;
29466;SDS011;60968;37.490;-122.288;2023-03-01T16:27:50;6.43;;;1.17;;
29466;SDS011;60968;37.490;-122.288;2023-03-01T16:30:51;14.10;;;1.60;;
29466;SDS011;60968;37.490;-122.288;2023-03-01T16:33:55;7.30;;;1.93;;
29466;SDS011;60968;37.490;-122.288;2023-03-01T16:36:57;15.40;;;1.70;;
29466;SDS011;60968;37.490;-122.288;2023-03-01T16:39:58;12.30;;;1.50;;
29466;SDS011;60968;37.490;-122.288;2023-03-01T16:43:00;3.93;;;0.80;;
29466;SDS011;60968;37.490;-122.288;2023-03-01T16:46:00;6.20;;;1.50;;
29466;SDS011;60968;37.490;-122.288;2023-03-01T16:49:01;4.70;;;1.00;;
29466;SDS011;60968;37.490;-122.288;2023-03-01T16:52:02;4.33;;;1.07;;
29466;SDS011;60968;37.490;-122.288;2023-03-01T16:55:06;8.03;;;0.90;;
29466;SDS011;60968;37.490;-122.288;2023-03-01T16:58:08;2.90;;;0.60;;
29466;SDS011;60968;37.490;-122.288;2023-03-01T17:01:13;4.63;;;0.90;;
29466;SDS011;60968;37.490;-122.288;2023-03-01T17:04:18;5.60;;;0.70;;
29466;SDS011;60968;37.490;-122.288;2023-03-01T17:07:22;6.57;;;1.10;;
29466;SDS011;60968;37.490;-122.288;2023-03-01T17:10:26;3.20;;;0.90;;
29466;SDS011;60968;37.490;-122.288;2023-03-01T17:13:34;7.23;;;1.00;;
29466;SDS011;60968;37.490;-122.288;2023-03-01T17:16:42;1.77;;;0.50;;
29466;SDS011;60968;37.490;-122.288;2023-03-01T17:19:43;2.23;;;0.60;;
29466;SDS011;60968;37.490;-122.288;2023-03-01T17:22:49;2.50;;;0.70;;
29466;SDS011;60968;37.490;-122.288;2023-03-01T17:25:50;8.93;;;1.00;;
29466;SDS011;60968;37.490;-122.288;2023-03-01T17:28:52;4.47;;;0.70;;
29466;SDS011;60968;37.490;-122.288;2023-03-01T17:31:56;5.70;;;1.23;;
29466;SDS011;60968;37.490;-122.288;2023-03-01T17:34:57;8.23;;;0.90;;
29466;SDS011;60968;37.490;-122.288;2023-03-01T17:37:58;2.10;;;0.80;;
29466;SDS011;60968;37.490;-122.288;2023-03-01T17:40:59;2.08;;;1.00;;
29466;SDS011;60968;37.490;-122.288;2023-03-01T17:44:00;3.70;;;1.08;;
29466;SDS011;60968;37.490;-122.288;2023-03-01T17:47:02;2.65;;;1.05;;
29466;SDS011;60968;37.490;-122.288;2023-03-01T17:50:04;1.52;;;0.85;;
29466;SDS011;60968;37.490;-122.288;2023-03-01T17:53:06;3.53;;;0.90;;
29466;SDS011;60968;37.490;-122.288;2023-03-01T17:56:07;2.05;;;0.80;;
29466;SDS011;60968;37.490;-122.288;2023-03-01T17:59:08;1.50;;;0.90;;
29466;SDS011;60968;37.490;-122.288;2023-03-01T18:02:10;1.45;;;1.00;;
29466;SDS011;60968;37.490;-122.288;2023-03-01T18:05:13;3.67;;;1.00;;
29466;SDS011;60968;37.490;-122.288;2023-03-01T18:08:14;1.33;;;0.50;;
29466;SDS011;60968;37.490;-122.288;2023-03-01T18:11:16;0.83;;;0.60;;
29466;SDS011;60968;37.490;-122.288;2023-03-01T18:14:18;2.00;;;0.50;;
29466;SDS011;60968;37.490;-122.288;2023-03-01T18:17:19;1.43;;;0.40;;
29466;SDS011;60968;37.490;-122.288;2023-03-01T18:20:21;0.97;;;0.30;;
29466;SDS011;60968;37.490;-122.288;2023-03-01T18:23:22;1.87;;;0.50;;
29466;SDS011;60968;37.490;-122.288;2023-03-01T18:26:24;0.63;;;0.27;;
29466;SDS011;60968;37.490;-122.288;2023-03-01T18:29:25;1.40;;;0.30;;
29466;SDS011;60968;37.490;-122.288;2023-03-01T18:32:26;3.43;;;0.50;;
29466;SDS011;60968;37.490;-122.288;2023-03-01T18:35:26;1.27;;;0.20;;
29466;SDS011;60968;37.490;-122.288;2023-03-01T18:38:27;0.63;;;0.10;;
29466;SDS011;60968;37.490;-122.288;2023-03-01T18:41:28;0.53;;;0.40;;
29466;SDS011;60968;37.490;-122.288;2023-03-01T18:44:29;1.07;;;0.30;;
29466;SDS011;60968;37.490;-122.288;2023-03-01T18:47:30;0.30;;;0.20;;
29466;SDS011;60968;37.490;-122.288;2023-03-01T18:50:31;0.63;;;0.20;;
29466;SDS011;60968;37.490;-122.288;2023-03-01T18:53:32;0.60;;;0.30;;
29466;SDS011;60968;37.490;-122.288;2023-03-01T18:56:33;0.83;;;0.20;;
29466;SDS011;60968;37.490;-122.288;2023-03-01T18:59:34;0.63;;;0.17;;
29466;SDS011;60968;37.490;-122.288;2023-03-01T19:02:35;1.27;;;0.30;;
29466;SDS011;60968;37.490;-122.288;2023-03-01T19:05:39;0.83;;;0.20;;
29466;SDS011;60968;37.490;-122.288;2023-03-01T19:08:40;0.63;;;0.20;;
29466;SDS011;60968;37.490;-122.288;2023-03-01T19:11:42;1.70;;;0.23;;
29466;SDS011;60968;37.490;-122.288;2023-03-01T19:14:43;0.23;;;0.10;;
29466;SDS011;60968;37.490;-122.288;2023-03-01T19:17:43;0.20;;;0.10;;
29466;SDS011;60968;37.490;-122.288;2023-03-01T19:20:44;0.93;;;0.17;;
29466;SDS011;60968;37.490;-122.288;2023-03-01T19:23:45;0.40;;;0.10;;
29466;SDS011;60968;37.490;-122.288;2023-03-01T19:26:48;2.40;;;0.20;;
29466;SDS011;60968;37.490;-122.288;2023-03-01T19:29:48;0.33;;;0.10;;
29466;SDS011;60968;37.490;-122.288;2023-03-01T19:32:49;0.60;;;0.20;;
29466;SDS011;60968;37.490;-122.288;2023-03-01T19:35:50;0.70;;;0.20;;